createdAt,value
2022-12-03T00:01:01.845Z,100.00
2022-12-03T00:03:30.604Z,100.00
2022-12-03T00:05:59.018Z,100.00
2022-12-03T00:08:31.053Z,100.00
2022-12-03T00:10:59.774Z,100.00
2022-12-03T00:13:27.761Z,100.00
2022-12-03T00:15:56.013Z,100.00
2022-12-03T00:18:24.593Z,100.00
2022-12-03T00:20:52.661Z,100.00
2022-12-03T00:23:20.928Z,100.00
2022-12-03T00:25:49.442Z,100.00
2022-12-03T00:28:17.517Z,100.00
2022-12-03T00:30:45.560Z,100.00
2022-12-03T00:33:13.988Z,100.00
2022-12-03T00:35:42.182Z,100.00
2022-12-03T00:38:10.246Z,100.00
2022-12-03T00:40:38.713Z,100.00
2022-12-03T00:43:06.791Z,100.00
2022-12-03T00:45:35.039Z,100.00
2022-12-03T00:48:03.756Z,100.00
2022-12-03T00:50:32.046Z,100.00
2022-12-03T00:53:00.027Z,100.00
2022-12-03T00:55:28.479Z,100.00
2022-12-03T00:57:56.648Z,100.00
2022-12-03T01:00:25.330Z,100.00
2022-12-03T01:02:54.145Z,100.00
2022-12-03T01:05:23.061Z,100.00
2022-12-03T01:07:51.284Z,100.00
2022-12-03T01:10:19.887Z,100.00
2022-12-03T01:12:47.946Z,100.00
2022-12-03T01:15:16.047Z,100.00
2022-12-03T01:17:44.524Z,100.00
2022-12-03T01:20:12.952Z,100.00
2022-12-03T01:22:40.923Z,100.00
2022-12-03T01:25:09.909Z,100.00
2022-12-03T01:27:37.893Z,100.00
2022-12-03T01:30:07.372Z,100.00
2022-12-03T01:32:35.745Z,100.00
2022-12-03T01:35:04.588Z,100.00
2022-12-03T01:37:32.999Z,100.00
2022-12-03T01:40:01.469Z,100.00
2022-12-03T01:42:34.721Z,100.00
2022-12-03T01:45:04.154Z,100.00
2022-12-03T01:47:36.762Z,100.00
2022-12-03T01:50:26.078Z,100.00
2022-12-03T01:52:57.663Z,100.00
2022-12-03T01:55:26.862Z,100.00
2022-12-03T01:57:59.005Z,100.00
2022-12-03T02:00:29.015Z,100.00
2022-12-03T02:03:04.103Z,100.00
2022-12-03T02:05:33.169Z,100.00
2022-12-03T02:08:01.533Z,100.00
2022-12-03T02:10:36.080Z,100.00
2022-12-03T02:13:10.943Z,100.00
2022-12-03T02:15:40.156Z,100.00
2022-12-03T02:18:10.165Z,100.00
2022-12-03T02:21:01.715Z,100.00
2022-12-03T02:23:41.799Z,100.00
2022-12-03T02:26:10.415Z,100.00
2022-12-03T02:28:38.882Z,100.00
2022-12-03T02:31:07.305Z,100.00
2022-12-03T02:33:36.463Z,100.00
2022-12-03T02:36:05.167Z,100.00
2022-12-03T02:38:35.739Z,100.00
2022-12-03T02:41:07.994Z,100.00
2022-12-03T02:43:37.179Z,100.00
2022-12-03T02:46:07.886Z,100.00
2022-12-03T02:48:38.553Z,100.00
2022-12-03T02:51:11.304Z,100.00
2022-12-03T02:53:46.309Z,100.00
2022-12-03T02:56:18.471Z,100.00
2022-12-03T02:58:50.143Z,100.00
2022-12-03T03:01:18.682Z,100.00
2022-12-03T03:03:48.755Z,100.00
2022-12-03T03:06:18.685Z,100.00
2022-12-03T03:08:48.766Z,100.00
2022-12-03T03:11:16.938Z,100.00
2022-12-03T03:13:45.168Z,100.00
2022-12-03T03:16:13.682Z,100.00
2022-12-03T03:18:42.208Z,100.00
2022-12-03T03:21:10.523Z,100.00
2022-12-03T03:23:39.067Z,100.00
2022-12-03T03:26:09.782Z,100.00
2022-12-03T03:28:42.794Z,100.00
2022-12-03T03:31:14.042Z,100.00
2022-12-03T03:33:45.360Z,100.00
2022-12-03T03:36:15.410Z,100.00
2022-12-03T03:38:43.771Z,100.00
2022-12-03T03:41:12.513Z,100.00
2022-12-03T03:43:42.991Z,100.00
2022-12-03T03:46:12.117Z,100.00
2022-12-03T03:48:43.072Z,100.00
2022-12-03T03:51:13.275Z,100.00
2022-12-03T03:53:44.390Z,100.00
2022-12-03T03:56:12.726Z,100.00
2022-12-03T03:58:40.946Z,100.00
2022-12-03T04:01:11.426Z,100.00
2022-12-03T04:03:40.357Z,100.00
2022-12-03T04:06:09.261Z,100.00
2022-12-03T04:08:37.436Z,100.00
2022-12-03T04:11:24.534Z,100.00
2022-12-03T04:13:52.600Z,100.00
2022-12-03T04:16:21.035Z,100.00
2022-12-03T04:18:49.316Z,100.00
2022-12-03T04:21:38.738Z,100.00
2022-12-03T04:24:08.834Z,100.00
2022-12-03T04:26:55.792Z,100.00
2022-12-03T04:29:24.156Z,100.00
2022-12-03T04:32:10.890Z,100.00
2022-12-03T04:34:57.889Z,100.00
2022-12-03T04:37:26.306Z,100.00
2022-12-03T04:39:54.733Z,100.00
2022-12-03T04:42:22.888Z,100.00
2022-12-03T04:44:51.351Z,100.00
2022-12-03T04:47:21.724Z,100.00
2022-12-03T04:49:51.275Z,100.00
2022-12-03T04:52:21.253Z,100.00
2022-12-03T04:54:49.338Z,100.00
2022-12-03T04:57:17.656Z,100.00
2022-12-03T04:59:46.489Z,100.00
2022-12-03T05:02:14.606Z,100.00
2022-12-03T05:04:42.687Z,100.00
2022-12-03T05:07:12.521Z,100.00
2022-12-03T05:09:40.936Z,100.00
2022-12-03T05:12:08.989Z,100.00
2022-12-03T05:14:37.537Z,100.00
2022-12-03T05:17:05.650Z,100.00
2022-12-03T05:19:52.370Z,100.00
2022-12-03T05:22:20.854Z,100.00
2022-12-03T05:24:48.899Z,100.00
2022-12-03T05:27:23.167Z,100.00
2022-12-03T05:29:52.924Z,100.00
2022-12-03T05:32:21.098Z,100.00
2022-12-03T05:34:49.130Z,100.00
2022-12-03T05:37:17.905Z,100.00
2022-12-03T05:39:46.104Z,100.00
2022-12-03T05:42:46.692Z,100.00
2022-12-03T05:45:15.516Z,100.00
2022-12-03T05:47:43.604Z,100.00
2022-12-03T05:50:11.889Z,100.00
2022-12-03T05:52:40.500Z,100.00
2022-12-03T05:55:09.026Z,100.00
2022-12-03T05:57:37.051Z,100.00
2022-12-03T06:00:09.606Z,100.00
2022-12-03T06:02:41.247Z,100.00
2022-12-03T06:05:11.543Z,100.00
2022-12-03T06:07:39.922Z,100.00
2022-12-03T06:10:11.062Z,100.00
2022-12-03T06:12:40.150Z,100.00
2022-12-03T06:15:09.130Z,100.00
2022-12-03T06:17:37.330Z,100.00
2022-12-03T06:20:06.640Z,100.00
2022-12-03T06:22:34.834Z,100.00
2022-12-03T06:25:06.630Z,100.00
2022-12-03T06:27:36.266Z,100.00
2022-12-03T06:30:05.704Z,100.00
2022-12-03T06:32:33.928Z,100.00
2022-12-03T06:35:02.401Z,100.00
2022-12-03T06:37:30.553Z,100.00
2022-12-03T06:39:59.024Z,100.00
2022-12-03T06:42:27.417Z,100.00
2022-12-03T06:44:55.764Z,100.00
2022-12-03T06:47:24.181Z,100.00
2022-12-03T06:49:52.662Z,100.00
2022-12-03T06:52:20.730Z,100.00
2022-12-03T06:54:48.739Z,100.00
2022-12-03T06:57:17.192Z,100.00
2022-12-03T06:59:45.329Z,100.00
2022-12-03T07:02:13.529Z,100.00
2022-12-03T07:04:46.239Z,100.00
2022-12-03T07:07:14.693Z,100.00
2022-12-03T07:09:43.648Z,100.00
2022-12-03T07:12:12.546Z,100.00
2022-12-03T07:14:40.615Z,100.00
2022-12-03T07:17:09.167Z,100.00
2022-12-03T07:19:37.411Z,100.00
2022-12-03T07:22:05.992Z,100.00
2022-12-03T07:24:34.491Z,100.00
2022-12-03T07:27:02.740Z,100.00
2022-12-03T07:29:30.906Z,100.00
2022-12-03T07:31:59.385Z,100.00
2022-12-03T07:34:29.440Z,100.00
2022-12-03T07:36:57.606Z,100.00
2022-12-03T07:39:26.021Z,100.00
2022-12-03T07:41:54.232Z,100.00
2022-12-03T07:44:22.418Z,100.00
2022-12-03T07:46:50.809Z,100.00
2022-12-03T07:49:19.016Z,100.00
2022-12-03T07:51:53.954Z,100.00
2022-12-03T07:54:26.192Z,100.00
2022-12-03T07:56:59.608Z,100.00
2022-12-03T07:59:30.023Z,100.00
2022-12-03T08:01:58.265Z,100.00
2022-12-03T08:04:26.610Z,100.00
2022-12-03T08:06:55.023Z,100.00
2022-12-03T08:09:23.313Z,100.00
2022-12-03T08:11:52.222Z,100.00
2022-12-03T08:14:21.121Z,100.00
2022-12-03T08:16:49.315Z,100.00
2022-12-03T08:19:18.443Z,100.00
2022-12-03T08:21:46.556Z,100.00
2022-12-03T08:24:20.442Z,100.00
2022-12-03T08:26:49.675Z,100.00
2022-12-03T08:29:20.180Z,100.00
2022-12-03T08:31:52.294Z,100.00
2022-12-03T08:34:26.515Z,100.00
2022-12-03T08:37:05.846Z,100.00
2022-12-03T08:39:40.004Z,100.00
2022-12-03T08:42:42.368Z,100.00
2022-12-03T08:45:22.781Z,100.00
2022-12-03T08:47:51.239Z,100.00
2022-12-03T08:50:25.546Z,100.00
2022-12-03T08:52:57.755Z,100.00
2022-12-03T08:55:52.957Z,100.00
2022-12-03T08:58:43.456Z,100.00
2022-12-03T09:01:11.648Z,100.00
2022-12-03T09:03:49.393Z,100.00
2022-12-03T09:06:18.117Z,100.00
2022-12-03T09:08:46.436Z,100.00
2022-12-03T09:11:15.739Z,100.00
2022-12-03T09:13:43.828Z,100.00
2022-12-03T09:16:12.347Z,100.00
2022-12-03T09:18:40.478Z,100.00
2022-12-03T09:21:08.982Z,100.00
2022-12-03T09:23:37.488Z,100.00
2022-12-03T09:26:05.786Z,100.00
2022-12-03T09:28:33.820Z,100.00
2022-12-03T09:31:02.295Z,100.00
2022-12-03T09:33:32.446Z,100.00
2022-12-03T09:36:00.568Z,100.00
2022-12-03T09:38:30.001Z,100.00
2022-12-03T09:40:59.521Z,100.00
2022-12-03T09:43:49.426Z,100.00
2022-12-03T09:46:22.563Z,100.00
2022-12-03T09:48:50.960Z,100.00
2022-12-03T09:51:21.165Z,100.00
2022-12-03T09:53:49.357Z,100.00
2022-12-03T09:56:22.152Z,100.00
2022-12-03T09:58:50.729Z,100.00
2022-12-03T10:01:19.197Z,100.00
2022-12-03T10:03:52.343Z,100.00
2022-12-03T10:06:22.578Z,100.00
2022-12-03T10:08:54.886Z,100.00
2022-12-03T10:11:25.241Z,100.00
2022-12-03T10:13:55.314Z,100.00
2022-12-03T10:16:23.673Z,100.00
2022-12-03T10:18:57.991Z,100.00
2022-12-03T10:21:35.437Z,100.00
2022-12-03T10:24:22.307Z,100.00
2022-12-03T10:26:52.696Z,100.00
2022-12-03T10:29:29.660Z,100.00
2022-12-03T10:32:11.962Z,100.00
2022-12-03T10:34:42.060Z,100.00
2022-12-03T10:37:21.934Z,100.00
2022-12-03T10:39:56.817Z,100.00
2022-12-03T10:42:27.906Z,100.00
2022-12-03T10:45:22.365Z,100.00
2022-12-03T10:48:06.078Z,100.00
2022-12-03T10:50:35.363Z,100.00
2022-12-03T10:53:04.860Z,100.00
2022-12-03T10:55:42.034Z,100.00
2022-12-03T10:58:23.309Z,98.69
2022-12-03T11:00:54.064Z,99.56
2022-12-03T11:03:25.784Z,98.11
2022-12-03T11:05:55.611Z,98.80
2022-12-03T11:08:26.844Z,98.90
2022-12-03T11:11:05.540Z,100.00
2022-12-03T11:13:33.918Z,98.71
2022-12-03T11:16:04.512Z,99.84
2022-12-03T11:18:38.623Z,100.00
2022-12-03T11:21:11.512Z,98.59
2022-12-03T11:23:45.559Z,99.98
2022-12-03T11:26:29.278Z,97.65
2022-12-03T11:28:59.427Z,98.86
2022-12-03T11:31:36.328Z,98.77
2022-12-03T11:34:16.847Z,97.18
2022-12-03T11:37:10.168Z,97.56
2022-12-03T11:39:50.688Z,97.96
2022-12-03T11:42:27.952Z,99.04
2022-12-03T11:45:11.207Z,97.96
2022-12-03T11:47:58.001Z,98.34
2022-12-03T11:50:40.546Z,96.84
2022-12-03T11:53:23.022Z,96.45
2022-12-03T11:56:06.259Z,96.37
2022-12-03T11:58:38.305Z,96.08
2022-12-03T12:01:08.495Z,94.10
2022-12-03T12:03:50.206Z,94.37
2022-12-03T12:06:20.669Z,95.56
2022-12-03T12:08:52.202Z,96.49
2022-12-03T12:11:25.703Z,96.34
2022-12-03T12:14:01.113Z,96.01
2022-12-03T12:16:36.291Z,96.45
2022-12-03T12:19:30.782Z,95.98
2022-12-03T12:22:25.099Z,95.29
2022-12-03T12:24:57.949Z,97.43
2022-12-03T12:27:32.109Z,97.20
2022-12-03T12:30:14.311Z,97.21
2022-12-03T12:33:15.219Z,96.60
2022-12-03T12:35:43.681Z,96.78
2022-12-03T12:38:20.189Z,95.71
2022-12-03T12:40:50.311Z,95.24
2022-12-03T12:43:31.025Z,95.08
2022-12-03T12:46:38.651Z,95.28
2022-12-03T12:48:59.585Z,94.80
2022-12-03T12:51:28.878Z,95.25
2022-12-03T12:53:57.538Z,95.83
2022-12-03T12:56:30.171Z,97.01
2022-12-03T12:59:11.482Z,97.38
2022-12-03T13:01:42.042Z,97.43
2022-12-03T13:04:12.802Z,97.92
2022-12-03T13:06:41.906Z,98.05
2022-12-03T13:09:20.072Z,98.28
2022-12-03T13:12:04.086Z,97.51
2022-12-03T13:14:36.487Z,96.93
2022-12-03T13:17:16.516Z,96.78
2022-12-03T13:19:48.625Z,97.04
2022-12-03T13:22:23.009Z,96.45
2022-12-03T13:24:54.358Z,96.08
2022-12-03T13:27:27.201Z,97.05
2022-12-03T13:30:01.383Z,96.72
2022-12-03T13:32:34.814Z,97.57
2022-12-03T13:35:13.252Z,96.67
2022-12-03T13:37:41.292Z,97.41
2022-12-03T13:40:27.923Z,96.95
2022-12-03T13:42:57.053Z,96.69
2022-12-03T13:45:32.136Z,97.05
2022-12-03T13:48:03.244Z,98.12
2022-12-03T13:50:39.438Z,97.42
2022-12-03T13:53:27.634Z,97.37
2022-12-03T13:56:28.543Z,97.94
2022-12-03T13:58:59.705Z,97.91
2022-12-03T14:01:28.675Z,98.65
2022-12-03T14:03:57.264Z,97.81
2022-12-03T14:06:25.350Z,98.51
2022-12-03T14:08:53.868Z,98.03
2022-12-03T14:11:40.778Z,97.82
2022-12-03T14:14:09.182Z,98.51
2022-12-03T14:16:37.741Z,99.42
2022-12-03T14:19:06.363Z,99.31
2022-12-03T14:21:34.524Z,100.00
2022-12-03T14:24:02.930Z,99.14
2022-12-03T14:26:30.995Z,98.96
2022-12-03T14:28:59.266Z,100.00
2022-12-03T14:31:27.650Z,99.52
2022-12-03T14:33:55.974Z,100.00
2022-12-03T14:36:24.071Z,100.00
2022-12-03T14:38:52.834Z,100.00
2022-12-03T14:41:39.640Z,100.00
2022-12-03T14:44:08.131Z,100.00
2022-12-03T14:46:36.128Z,100.00
2022-12-03T14:49:04.179Z,100.00
2022-12-03T14:51:32.718Z,100.00
2022-12-03T14:54:01.298Z,100.00
2022-12-03T14:56:29.274Z,100.00
2022-12-03T14:58:57.667Z,100.00
2022-12-03T15:01:26.197Z,100.00
2022-12-03T15:03:54.311Z,100.00
2022-12-03T15:06:23.072Z,100.00
2022-12-03T15:08:51.204Z,100.00
2022-12-03T15:11:19.418Z,100.00
2022-12-03T15:13:48.017Z,100.00
2022-12-03T15:16:16.951Z,100.00
2022-12-03T15:18:46.949Z,100.00
2022-12-03T15:21:15.606Z,100.00
2022-12-03T15:23:43.601Z,100.00
2022-12-03T15:26:11.783Z,100.00
2022-12-03T15:28:44.125Z,100.00
2022-12-03T15:31:15.251Z,100.00
2022-12-03T15:33:43.778Z,100.00
2022-12-03T15:36:12.617Z,100.00
2022-12-03T15:38:40.880Z,100.00
2022-12-03T15:41:21.851Z,100.00
2022-12-03T15:43:53.059Z,100.00
2022-12-03T15:46:21.640Z,100.00
2022-12-03T15:48:50.980Z,100.00
2022-12-03T15:51:19.201Z,100.00
2022-12-03T15:53:47.572Z,100.00
2022-12-03T15:56:16.201Z,100.00
2022-12-03T15:58:44.701Z,100.00
2022-12-03T16:01:14.725Z,100.00
2022-12-03T16:03:43.528Z,100.00
2022-12-03T16:06:12.669Z,100.00
2022-12-03T16:08:41.522Z,100.00
2022-12-03T16:11:10.587Z,100.00
2022-12-03T16:13:38.926Z,100.00
2022-12-03T16:16:07.551Z,100.00
2022-12-03T16:18:36.127Z,100.00
2022-12-03T16:21:04.728Z,100.00
2022-12-03T16:23:33.072Z,100.00
2022-12-03T16:26:01.546Z,100.00
2022-12-03T16:28:30.005Z,100.00
2022-12-03T16:30:58.782Z,100.00
2022-12-03T16:33:28.077Z,100.00
2022-12-03T16:35:56.949Z,100.00
2022-12-03T16:38:25.202Z,100.00
2022-12-03T16:40:53.785Z,100.00
2022-12-03T16:43:21.903Z,100.00
2022-12-03T16:45:56.118Z,100.00
2022-12-03T16:48:24.480Z,100.00
2022-12-03T16:50:53.319Z,100.00
2022-12-03T16:53:21.329Z,100.00
2022-12-03T16:55:49.709Z,100.00
2022-12-03T16:58:21.524Z,100.00
2022-12-03T17:00:54.149Z,100.00
2022-12-03T17:03:22.970Z,100.00
2022-12-03T17:05:51.519Z,100.00
2022-12-03T17:08:19.940Z,100.00
2022-12-03T17:10:48.447Z,100.00
2022-12-03T17:13:16.865Z,100.00
2022-12-03T17:15:45.058Z,100.00
2022-12-03T17:18:13.447Z,100.00
2022-12-03T17:20:41.884Z,100.00
2022-12-03T17:23:10.230Z,100.00
2022-12-03T17:25:38.428Z,100.00
2022-12-03T17:28:06.806Z,100.00
2022-12-03T17:30:35.213Z,100.00
2022-12-03T17:33:03.519Z,100.00
2022-12-03T17:35:31.978Z,100.00
2022-12-03T17:38:00.256Z,100.00
2022-12-03T17:40:28.583Z,100.00
2022-12-03T17:42:57.088Z,100.00
2022-12-03T17:45:27.165Z,100.00
2022-12-03T17:47:55.509Z,100.00
2022-12-03T17:50:26.094Z,100.00
2022-12-03T17:52:54.421Z,100.00
2022-12-03T17:55:31.969Z,100.00
2022-12-03T17:58:05.724Z,100.00
2022-12-03T18:00:34.500Z,100.00
2022-12-03T18:03:03.216Z,100.00
2022-12-03T18:05:31.227Z,100.00
2022-12-03T18:07:59.697Z,100.00
2022-12-03T18:10:28.035Z,100.00
2022-12-03T18:13:01.471Z,100.00
2022-12-03T18:15:32.501Z,100.00
2022-12-03T18:18:00.725Z,100.00
2022-12-03T18:20:28.881Z,100.00
2022-12-03T18:23:00.351Z,100.00
2022-12-03T18:25:29.043Z,100.00
2022-12-03T18:27:57.622Z,100.00
2022-12-03T18:30:26.033Z,100.00
2022-12-03T18:32:55.134Z,100.00
2022-12-03T18:35:23.916Z,100.00
2022-12-03T18:37:52.346Z,100.00
2022-12-03T18:40:25.312Z,100.00
2022-12-03T18:42:55.436Z,100.00
2022-12-03T18:45:23.654Z,100.00
2022-12-03T18:47:51.766Z,100.00
2022-12-03T18:50:20.566Z,100.00
2022-12-03T18:52:48.935Z,100.00
2022-12-03T18:55:19.152Z,100.00
2022-12-03T18:57:47.801Z,100.00
2022-12-03T19:00:16.282Z,100.00
2022-12-03T19:05:34.870Z,100.00
2022-12-03T19:08:04.131Z,100.00
2022-12-03T19:10:32.960Z,100.00
2022-12-03T19:13:03.660Z,100.00
2022-12-03T19:15:32.250Z,100.00
2022-12-03T19:18:01.523Z,100.00
2022-12-03T19:20:29.902Z,100.00
2022-12-03T19:22:58.403Z,100.00
2022-12-03T19:25:26.792Z,100.00
2022-12-03T19:27:57.052Z,100.00
2022-12-03T19:30:26.265Z,100.00
2022-12-03T19:32:54.880Z,100.00
2022-12-03T19:35:23.726Z,100.00
2022-12-03T19:37:53.026Z,100.00
2022-12-03T19:40:21.794Z,100.00
2022-12-03T19:42:50.069Z,100.00
2022-12-03T19:45:18.397Z,100.00
2022-12-03T19:47:46.852Z,100.00
2022-12-03T19:50:22.545Z,100.00
2022-12-03T19:52:51.586Z,100.00
2022-12-03T19:55:20.192Z,100.00
2022-12-03T19:57:48.695Z,100.00
2022-12-03T20:00:17.729Z,100.00
2022-12-03T20:02:49.565Z,100.00
2022-12-03T20:05:17.855Z,100.00
2022-12-03T20:07:46.660Z,100.00
2022-12-03T20:10:15.047Z,100.00
2022-12-03T20:12:43.650Z,100.00
2022-12-03T20:15:13.459Z,100.00
2022-12-03T20:17:41.683Z,100.00
2022-12-03T20:20:10.458Z,100.00
2022-12-03T20:22:39.155Z,100.00
2022-12-03T20:25:07.713Z,100.00
2022-12-03T20:27:36.695Z,100.00
2022-12-03T20:30:06.023Z,100.00
2022-12-03T20:32:40.553Z,100.00
2022-12-03T20:35:12.711Z,100.00
2022-12-03T20:37:41.267Z,100.00
2022-12-03T20:40:09.878Z,100.00
2022-12-03T20:42:38.717Z,100.00
2022-12-03T20:45:07.666Z,100.00
2022-12-03T20:47:35.945Z,100.00
2022-12-03T20:50:05.122Z,100.00
2022-12-03T20:52:33.425Z,100.00
2022-12-03T20:55:01.762Z,100.00
2022-12-03T20:57:30.922Z,100.00
2022-12-03T20:59:59.308Z,100.00
2022-12-03T21:02:27.645Z,100.00
2022-12-03T21:04:56.458Z,100.00
2022-12-03T21:07:25.359Z,100.00
2022-12-03T21:09:54.018Z,100.00
2022-12-03T21:12:23.005Z,100.00
2022-12-03T21:14:51.074Z,100.00
2022-12-03T21:17:19.500Z,100.00
2022-12-03T21:19:48.105Z,100.00
2022-12-03T21:22:16.228Z,100.00
2022-12-03T21:24:44.343Z,100.00
2022-12-03T21:27:17.038Z,100.00
2022-12-03T21:29:49.540Z,100.00
2022-12-03T21:32:18.336Z,100.00
2022-12-03T21:34:46.617Z,100.00
2022-12-03T21:37:15.135Z,100.00
2022-12-03T21:39:43.626Z,100.00
2022-12-03T21:42:22.126Z,100.00
2022-12-03T21:45:01.541Z,100.00
2022-12-03T21:47:36.556Z,100.00
2022-12-03T21:50:06.646Z,100.00
2022-12-03T21:52:35.578Z,100.00
2022-12-03T21:55:04.316Z,100.00
2022-12-03T21:57:36.224Z,100.00
2022-12-03T22:00:07.781Z,100.00
2022-12-03T22:02:42.694Z,100.00
2022-12-03T22:05:11.877Z,100.00
2022-12-03T22:07:40.757Z,100.00
2022-12-03T22:10:11.719Z,100.00
2022-12-03T22:12:41.854Z,100.00
2022-12-03T22:15:15.061Z,100.00
2022-12-03T22:17:47.738Z,100.00
2022-12-03T22:20:16.245Z,100.00
2022-12-03T22:22:44.363Z,100.00
2022-12-03T22:25:12.829Z,100.00
2022-12-03T22:27:41.139Z,100.00
2022-12-03T22:30:09.461Z,100.00
2022-12-03T22:32:37.932Z,100.00
2022-12-03T22:35:06.223Z,100.00
2022-12-03T22:37:34.264Z,100.00
2022-12-03T22:40:03.018Z,100.00
2022-12-03T22:42:31.324Z,100.00
2022-12-03T22:44:59.378Z,100.00
2022-12-03T22:47:27.695Z,100.00
2022-12-03T22:49:56.175Z,100.00
2022-12-03T22:52:24.497Z,100.00
2022-12-03T22:54:53.111Z,100.00
2022-12-03T22:57:21.179Z,100.00
2022-12-03T22:59:49.421Z,100.00
2022-12-03T23:02:18.270Z,100.00
2022-12-03T23:04:46.741Z,100.00
2022-12-03T23:07:14.842Z,100.00
2022-12-03T23:09:43.518Z,100.00
2022-12-03T23:12:11.535Z,100.00
2022-12-03T23:14:39.546Z,100.00
2022-12-03T23:17:07.850Z,100.00
2022-12-03T23:19:35.992Z,100.00
2022-12-03T23:22:03.962Z,100.00
2022-12-03T23:24:33.156Z,100.00
2022-12-03T23:27:01.222Z,100.00
2022-12-03T23:29:29.201Z,100.00
2022-12-03T23:31:57.825Z,100.00
2022-12-03T23:34:25.998Z,100.00
2022-12-03T23:36:54.008Z,100.00
2022-12-03T23:39:22.603Z,100.00
2022-12-03T23:41:53.385Z,100.00
2022-12-03T23:44:21.419Z,100.00
2022-12-03T23:46:50.236Z,100.00
2022-12-03T23:49:18.506Z,100.00
2022-12-03T23:51:46.570Z,100.00
2022-12-03T23:54:15.235Z,100.00
2022-12-03T23:56:43.319Z,100.00
2022-12-03T23:59:11.809Z,100.00
